Time;durP1;ratioP1;P1;durP2;ratioP2;P2;SDS_P1;SDS_P2;PMS_P1;PMS_P2;Temp;Humidity;BMP_temperature;BMP_pressure;BME280_temperature;BME280_humidity;BME280_pressure;Samples;Min_cycle;Max_cycle;Signal;HPM_P1;HPM_P2
2024/04/16 00:02:12;;;;;;;3.72;1.50;;;12.60;50.70;;;;;;5392986;26;20547;-52
2024/04/16 00:04:58;;;;;;;4.53;2.03;;;12.50;50.60;;;;;;5386386;26;20014;-51
2024/04/16 00:07:43;;;;;;;6.75;2.03;;;12.50;50.60;;;;;;5392369;26;20562;-53
2024/04/16 00:10:28;;;;;;;6.60;1.50;;;12.50;50.70;;;;;;5384592;26;20018;-51
2024/04/16 00:13:12;;;;;;;4.07;1.55;;;12.40;50.60;;;;;;5389898;26;20375;-50
2024/04/16 00:16:20;;;;;;;6.38;1.63;;;12.40;50.60;;;;;;5390800;26;20664;-51
2024/04/16 00:19:05;;;;;;;5.28;1.70;;;12.40;50.70;;;;;;5393522;26;20752;-49
2024/04/16 00:21:50;;;;;;;3.72;1.55;;;12.40;50.80;;;;;;5351795;26;20502;-52
2024/04/16 00:24:34;;;;;;;6.88;1.80;;;12.40;50.80;;;;;;5366466;26;20022;-51
2024/04/16 00:27:19;;;;;;;3.83;1.55;;;12.30;50.70;;;;;;5393933;26;20018;-53
2024/04/16 00:30:05;;;;;;;5.95;1.90;;;12.30;50.80;;;;;;5380913;26;20093;-52
2024/04/16 00:32:50;;;;;;;5.10;1.70;;;12.30;50.90;;;;;;5359259;26;20080;-54
2024/04/16 00:35:34;;;;;;;4.47;1.60;;;12.30;50.90;;;;;;5386372;26;20530;-51
2024/04/16 00:38:19;;;;;;;4.70;1.50;;;12.30;51.00;;;;;;5404447;26;20010;-48
2024/04/16 00:41:04;;;;;;;6.47;2.58;;;12.20;50.90;;;;;;5392120;26;20021;-53
2024/04/16 00:43:48;;;;;;;6.03;1.55;;;12.20;51.00;;;;;;5372504;26;20010;-49
2024/04/16 00:46:33;;;;;;;5.85;1.73;;;12.20;51.00;;;;;;5391344;26;20053;-51
2024/04/16 00:49:18;;;;;;;3.95;1.73;;;12.20;51.10;;;;;;5346908;26;20085;-53
2024/04/16 00:52:06;;;;;;;5.32;1.90;;;12.10;51.00;;;;;;5378825;26;20089;-51
2024/04/16 00:54:51;;;;;;;6.13;1.52;;;12.10;51.00;;;;;;5381055;26;20068;-50
2024/04/16 00:57:36;;;;;;;4.57;2.22;;;12.10;51.10;;;;;;5386805;26;20042;-51
2024/04/16 01:00:21;;;;;;;5.07;1.60;;;12.10;51.20;;;;;;5382233;26;20365;-52
2024/04/16 01:03:06;;;;;;;5.68;1.77;;;12.10;51.20;;;;;;5389725;26;20027;-49
2024/04/16 01:05:51;;;;;;;6.60;1.52;;;12.10;51.30;;;;;;5380369;26;20461;-52
2024/04/16 01:08:36;;;;;;;5.50;2.22;;;12.10;51.30;;;;;;5386302;26;20036;-52
2024/04/16 01:11:28;;;;;;;4.18;1.60;;;12.10;51.30;;;;;;5388245;26;20014;-51
2024/04/16 01:14:13;;;;;;;4.95;1.58;;;12.10;51.40;;;;;;5371590;26;20053;-53
2024/04/16 01:16:58;;;;;;;6.50;1.25;;;12.10;51.30;;;;;;5364521;26;20018;-50
2024/04/16 01:19:42;;;;;;;5.43;1.48;;;12.10;51.30;;;;;;5359306;26;20951;-53
2024/04/16 01:22:28;;;;;;;5.63;1.48;;;12.20;51.50;;;;;;5347149;26;20433;-50
2024/04/16 01:25:13;;;;;;;4.85;1.67;;;12.10;51.40;;;;;;5358449;26;20681;-52
2024/04/16 01:27:58;;;;;;;6.88;2.10;;;12.10;51.40;;;;;;5353931;26;20015;-50
2024/04/16 01:30:42;;;;;;;2.97;1.30;;;12.20;51.60;;;;;;5352751;26;20674;-55
2024/04/16 01:33:27;;;;;;;5.00;1.55;;;12.20;51.60;;;;;;5300409;26;20018;-51
2024/04/16 01:36:12;;;;;;;6.18;1.48;;;12.20;52.20;;;;;;5375500;26;20042;-51
2024/04/16 01:38:56;;;;;;;3.90;1.23;;;12.20;51.70;;;;;;5353674;26;20014;-46
2024/04/16 01:41:41;;;;;;;3.47;1.38;;;12.10;51.50;;;;;;5365844;26;20070;-49
2024/04/16 01:44:25;;;;;;;3.78;1.02;;;12.20;51.80;;;;;;5349978;26;20413;-48
2024/04/16 01:47:10;;;;;;;5.63;1.52;;;12.10;51.60;;;;;;5355439;26;20022;-50
2024/04/16 01:49:55;;;;;;;3.45;1.50;;;12.10;51.70;;;;;;5335623;26;20007;-52
2024/04/16 01:52:40;;;;;;;4.07;1.38;;;12.10;51.70;;;;;;5370551;26;20496;-51
2024/04/16 01:55:24;;;;;;;4.32;1.80;;;12.20;51.90;;;;;;5373138;26;20434;-49
2024/04/16 01:58:09;;;;;;;6.85;1.70;;;12.10;51.80;;;;;;5363716;26;20010;-50
2024/04/16 02:00:58;;;;;;;3.50;1.58;;;12.10;51.80;;;;;;5350072;26;20038;-50
2024/04/16 02:03:43;;;;;;;3.35;1.30;;;12.10;51.90;;;;;;5368723;26;20434;-50
2024/04/16 02:06:29;;;;;;;3.28;1.50;;;12.10;51.90;;;;;;5346362;26;20022;-49
2024/04/16 02:09:14;;;;;;;4.03;1.30;;;12.10;51.90;;;;;;5364656;26;20009;-53
2024/04/16 02:11:59;;;;;;;5.63;1.63;;;12.10;52.50;;;;;;5322274;26;20086;-51
2024/04/16 02:14:44;;;;;;;6.18;1.63;;;12.20;52.10;;;;;;5362919;26;20801;-48
2024/04/16 02:17:28;;;;;;;6.38;1.42;;;12.10;52.00;;;;;;5339718;26;20088;-50
2024/04/16 02:20:14;;;;;;;5.55;1.30;;;12.20;52.10;;;;;;5366450;26;20073;-54
2024/04/16 02:22:58;;;;;;;3.55;1.25;;;12.10;52.00;;;;;;5358954;26;20011;-50
2024/04/16 02:25:49;;;;;;;5.35;1.38;;;12.10;51.90;;;;;;5358770;26;20011;-49
2024/04/16 02:28:34;;;;;;;4.93;1.48;;;12.20;52.20;;;;;;5338953;26;20066;-48
2024/04/16 02:31:19;;;;;;;4.70;1.27;;;12.10;52.00;;;;;;5373909;26;20086;-50
2024/04/16 02:34:03;;;;;;;6.65;1.90;;;12.10;52.00;;;;;;5355642;26;20549;-51
2024/04/16 02:36:48;;;;;;;4.68;1.67;;;12.10;52.00;;;;;;5361926;26;20023;-51
2024/04/16 02:39:33;;;;;;;4.45;1.80;;;12.10;52.10;;;;;;5348936;26;20079;-51
2024/04/16 02:42:18;;;;;;;6.70;2.00;;;12.10;52.10;;;;;;5360776;26;20458;-50
2024/04/16 02:45:03;;;;;;;4.35;1.25;;;12.10;52.10;;;;;;5339324;26;20011;-52
2024/04/16 02:47:48;;;;;;;6.38;1.67;;;12.10;52.10;;;;;;5352551;26;20059;-49
2024/04/16 02:50:34;;;;;;;4.47;1.95;;;12.00;51.90;;;;;;5349359;26;20480;-50
2024/04/16 02:53:19;;;;;;;4.57;1.40;;;12.10;52.10;;;;;;5362616;26;20067;-52
2024/04/16 02:56:04;;;;;;;7.55;1.83;;;12.10;52.20;;;;;;5362320;26;20446;-48
2024/04/16 02:58:49;;;;;;;5.80;1.85;;;12.10;52.20;;;;;;5343000;26;20015;-48
2024/04/16 03:01:34;;;;;;;4.40;1.50;;;12.10;52.20;;;;;;5355066;26;20268;-52
2024/04/16 03:04:19;;;;;;;4.32;2.25;;;12.10;52.20;;;;;;5360148;26;20543;-51
2024/04/16 03:07:03;;;;;;;4.18;1.40;;;12.10;52.20;;;;;;5348031;26;20072;-53
2024/04/16 03:09:48;;;;;;;4.10;1.40;;;12.10;52.20;;;;;;5372740;26;20019;-50
2024/04/16 03:12:33;;;;;;;6.32;1.30;;;12.10;52.20;;;;;;5358275;26;20552;-52
2024/04/16 03:15:18;;;;;;;5.10;1.60;;;12.10;52.20;;;;;;5356081;26;20097;-48
2024/04/16 03:18:06;;;;;;;2.75;1.25;;;12.10;52.50;;;;;;5350744;26;20059;-54
2024/04/16 03:21:00;;;;;;;4.80;1.88;;;12.10;52.20;;;;;;5340031;26;20012;-51
2024/04/16 03:23:45;;;;;;;6.57;2.17;;;12.10;52.20;;;;;;5377807;26;20019;-50
2024/04/16 03:26:30;;;;;;;4.38;1.45;;;12.10;52.20;;;;;;5350215;26;20619;-52
2024/04/16 03:29:15;;;;;;;3.60;1.85;;;12.10;52.20;;;;;;5318237;26;20495;-51
2024/04/16 03:32:00;;;;;;;5.80;1.20;;;12.10;52.20;;;;;;5339877;26;20388;-51
2024/04/16 03:34:44;;;;;;;4.05;1.35;;;12.10;52.20;;;;;;5348700;26;20582;-47
2024/04/16 03:37:29;;;;;;;6.55;1.58;;;12.10;52.20;;;;;;5349178;26;20359;-57
2024/04/16 03:40:14;;;;;;;3.97;1.33;;;12.10;52.20;;;;;;5348119;26;20023;-51
2024/04/16 03:42:58;;;;;;;4.60;1.33;;;12.10;52.20;;;;;;5336513;26;20393;-52
2024/04/16 03:45:50;;;;;;;3.60;1.27;;;12.00;52.00;;;;;;5350684;26;20027;-51
2024/04/16 03:48:34;;;;;;;4.40;1.58;;;12.10;52.20;;;;;;5378248;26;20085;-51
2024/04/16 03:51:19;;;;;;;3.20;1.00;;;12.00;52.00;;;;;;5360247;26;20016;-52
2024/04/16 03:54:04;;;;;;;4.35;1.42;;;12.00;52.00;;;;;;5363978;26;20552;-49
2024/04/16 03:56:48;;;;;;;2.30;0.93;;;12.00;52.00;;;;;;5338421;26;20077;-50
2024/04/16 04:02:37;;;;;;;3.55;1.30;;;12.00;52.00;;;;;;5380914;26;20442;-53
2024/04/16 04:05:22;;;;;;;4.22;1.05;;;12.10;52.20;;;;;;5344434;26;20470;-51
2024/04/16 04:08:07;;;;;;;5.05;1.30;;;12.00;52.00;;;;;;5356553;26;20103;-51
2024/04/16 04:10:52;;;;;;;3.38;1.75;;;12.00;52.00;;;;;;5328801;26;20011;-51
2024/04/16 04:13:37;;;;;;;3.80;1.65;;;12.00;52.00;;;;;;5314332;26;20350;-50
2024/04/16 04:16:22;;;;;;;3.90;1.20;;;12.00;52.00;;;;;;5356050;26;20011;-49
2024/04/16 04:19:07;;;;;;;2.63;1.10;;;12.00;52.00;;;;;;5368468;26;20018;-54
2024/04/16 04:21:52;;;;;;;3.08;1.30;;;12.00;52.00;;;;;;5351351;26;20070;-48
2024/04/16 04:24:36;;;;;;;4.70;1.70;;;12.00;52.00;;;;;;5342195;26;20016;-50
2024/04/16 04:27:20;;;;;;;2.63;1.05;;;12.00;52.00;;;;;;5341010;26;20049;-52
2024/04/16 04:30:06;;;;;;;5.53;1.42;;;12.00;52.00;;;;;;5330922;26;20412;-53
2024/04/16 04:32:51;;;;;;;2.42;1.02;;;12.00;52.00;;;;;;5351963;26;20022;-50
2024/04/16 04:35:36;;;;;;;3.65;0.90;;;12.00;52.00;;;;;;5350988;26;20486;-51
2024/04/16 04:38:21;;;;;;;3.03;1.30;;;12.00;52.00;;;;;;5347410;26;20066;-49
2024/04/16 04:41:12;;;;;;;2.80;1.00;;;12.00;52.00;;;;;;5347222;26;20071;-51
2024/04/16 04:43:58;;;;;;;3.53;1.17;;;12.00;52.00;;;;;;5344306;26;20019;-50
2024/04/16 04:46:43;;;;;;;6.40;1.50;;;12.00;52.00;;;;;;5357871;26;20035;-50
2024/04/16 04:49:27;;;;;;;3.15;1.20;;;12.00;52.00;;;;;;5348019;26;20007;-52
2024/04/16 04:52:13;;;;;;;2.88;1.05;;;12.00;52.00;;;;;;5336627;26;20055;-52
2024/04/16 04:54:59;;;;;;;4.22;1.25;;;12.00;52.10;;;;;;5348012;26;20015;-48
2024/04/16 04:57:43;;;;;;;2.83;1.00;;;12.00;52.10;;;;;;5364487;26;20279;-54
2024/04/16 05:00:28;;;;;;;3.72;1.10;;;12.00;52.10;;;;;;5374712;26;20015;-49
2024/04/16 05:03:13;;;;;;;2.60;1.00;;;12.00;52.10;;;;;;5336194;26;20068;-51
2024/04/16 05:05:58;;;;;;;4.15;0.95;;;12.00;52.10;;;;;;5336428;26;20081;-53
2024/04/16 05:08:46;;;;;;;2.53;1.00;;;12.00;52.10;;;;;;5303225;26;20023;-53
2024/04/16 05:11:32;;;;;;;2.72;0.80;;;12.10;52.30;;;;;;5344363;26;20013;-52
2024/04/16 05:14:17;;;;;;;5.22;2.63;;;12.10;52.40;;;;;;5356653;26;20018;-48
2024/04/16 05:17:01;;;;;;;2.75;1.15;;;12.10;52.40;;;;;;5378384;26;20602;-50
2024/04/16 05:19:46;;;;;;;2.10;0.70;;;12.10;52.40;;;;;;5390684;26;20089;-50
2024/04/16 05:22:31;;;;;;;3.92;0.85;;;12.10;52.40;;;;;;5384989;26;20008;-53
2024/04/16 05:25:16;;;;;;;3.92;1.17;;;12.10;52.40;;;;;;5388899;26;20546;-49
2024/04/16 05:28:01;;;;;;;2.28;1.02;;;12.10;52.40;;;;;;5378460;26;20130;-51
2024/04/16 05:30:46;;;;;;;3.17;1.02;;;12.10;52.40;;;;;;5380068;26;20025;-50
2024/04/16 05:33:31;;;;;;;4.00;0.90;;;12.10;52.40;;;;;;5359093;26;20010;-53
2024/04/16 05:36:16;;;;;;;3.85;1.25;;;12.10;52.40;;;;;;5388858;26;20076;-53
2024/04/16 05:39:01;;;;;;;4.28;1.20;;;12.10;52.40;;;;;;5389121;26;20009;-48
2024/04/16 05:41:46;;;;;;;3.47;1.20;;;12.10;52.40;;;;;;5386425;26;20692;-50
2024/04/16 05:44:31;;;;;;;3.70;0.98;;;12.10;52.40;;;;;;5381320;26;20079;-50
2024/04/16 05:47:16;;;;;;;4.93;1.35;;;12.10;52.40;;;;;;5376847;26;20353;-51
2024/04/16 05:50:01;;;;;;;2.92;1.20;;;12.20;52.50;;;;;;5398837;26;20555;-51
2024/04/16 05:52:45;;;;;;;4.22;1.45;;;12.20;52.50;;;;;;5401385;26;20688;-51
2024/04/16 05:55:30;;;;;;;3.40;0.88;;;12.20;52.50;;;;;;5386416;26;20448;-52
2024/04/16 05:58:15;;;;;;;4.72;1.88;;;12.30;52.60;;;;;;5412197;26;20079;-51
2024/04/16 06:01:04;;;;;;;4.65;1.88;;;12.30;52.60;;;;;;5389205;26;20053;-50
2024/04/16 06:03:49;;;;;;;5.20;1.35;;;12.30;52.60;;;;;;5384653;26;20018;-51
2024/04/16 06:06:34;;;;;;;3.78;1.02;;;12.30;52.50;;;;;;5398708;26;20066;-50
2024/04/16 06:09:19;;;;;;;3.25;1.20;;;12.30;52.50;;;;;;5386701;26;20051;-52
2024/04/16 06:12:04;;;;;;;6.93;1.58;;;12.30;52.40;;;;;;5398095;26;20078;-52
2024/04/16 06:14:49;;;;;;;4.88;1.17;;;12.40;52.70;;;;;;5389346;26;20373;-52
2024/04/16 06:17:33;;;;;;;6.07;1.67;;;12.40;52.70;;;;;;5381011;26;20073;-51
2024/04/16 06:20:18;;;;;;;3.70;1.15;;;12.40;52.70;;;;;;5358400;26;20131;-47
2024/04/16 06:23:03;;;;;;;5.03;1.60;;;12.40;52.70;;;;;;5385009;26;20052;-53
2024/04/16 06:25:47;;;;;;;8.35;1.40;;;12.50;53.10;;;;;;5382762;26;20346;-51
2024/04/16 06:28:32;;;;;;;2.58;1.02;;;12.50;53.10;;;;;;5388353;26;20580;-48
2024/04/16 06:31:17;;;;;;;4.65;1.40;;;12.60;53.20;;;;;;5402582;26;20081;-50
2024/04/16 06:34:02;;;;;;;2.72;1.20;;;12.50;53.00;;;;;;5372965;26;20088;-54
2024/04/16 06:36:47;;;;;;;5.32;1.30;;;12.60;53.10;;;;;;5369537;26;20112;-50
2024/04/16 06:39:31;;;;;;;6.35;1.27;;;12.60;53.00;;;;;;5377344;26;20072;-50
2024/04/16 06:42:16;;;;;;;10.38;1.83;;;12.60;53.00;;;;;;5378812;26;20049;-48
2024/04/16 06:45:00;;;;;;;3.50;1.27;;;12.60;53.00;;;;;;5379155;26;20007;-51
2024/04/16 06:47:45;;;;;;;5.57;1.70;;;12.60;52.90;;;;;;5387988;26;20019;-52
2024/04/16 06:50:30;;;;;;;3.97;1.70;;;12.60;52.80;;;;;;5382493;26;20507;-48
2024/04/16 06:53:15;;;;;;;4.90;1.65;;;12.70;53.00;;;;;;5405153;26;20014;-50
2024/04/16 06:56:04;;;;;;;5.95;1.42;;;12.70;52.90;;;;;;5380232;26;20006;-52
2024/04/16 06:58:49;;;;;;;3.22;1.30;;;12.70;52.80;;;;;;5378568;26;20066;-49
2024/04/16 07:01:37;;;;;;;4.78;1.35;;;12.70;52.70;;;;;;5386377;26;20014;-48
2024/04/16 07:04:21;;;;;;;3.92;1.48;;;12.70;52.70;;;;;;5385251;26;20010;-49
2024/04/16 07:07:06;;;;;;;5.22;1.60;;;12.80;53.30;;;;;;5388975;26;20065;-52
2024/04/16 07:09:51;;;;;;;3.92;1.48;;;12.80;52.60;;;;;;5377501;26;20163;-51
2024/04/16 07:12:36;;;;;;;4.75;1.85;;;12.90;52.70;;;;;;5373760;26;20006;-52
2024/04/16 07:15:20;;;;;;;4.45;1.95;;;12.90;52.50;;;;;;5365083;26;20077;-50
2024/04/16 07:18:08;;;;;;;3.38;1.55;;;13.00;52.60;;;;;;5355584;26;20020;-54
2024/04/16 07:20:53;;;;;;;5.32;1.08;;;13.00;52.40;;;;;;5339291;26;20016;-52
2024/04/16 07:23:37;;;;;;;5.75;1.63;;;13.10;52.50;;;;;;5353801;26;20073;-49
2024/04/16 07:26:22;;;;;;;4.72;1.65;;;13.10;52.40;;;;;;5354865;26;20320;-53
2024/04/16 07:29:07;;;;;;;4.32;1.92;;;13.10;52.30;;;;;;5355697;26;20014;-52
2024/04/16 07:31:52;;;;;;;4.50;1.40;;;13.20;52.40;;;;;;5357137;26;20066;-53
2024/04/16 07:34:37;;;;;;;5.93;1.95;;;13.30;52.50;;;;;;5357002;26;20014;-54
2024/04/16 07:37:22;;;;;;;4.32;1.50;;;13.30;52.90;;;;;;5361273;26;20014;-52
2024/04/16 07:40:07;;;;;;;5.22;1.40;;;13.40;52.40;;;;;;5329097;26;20018;-51
2024/04/16 07:42:52;;;;;;;4.38;1.38;;;13.40;52.30;;;;;;5351002;26;20429;-54
2024/04/16 07:45:37;;;;;;;6.22;2.33;;;13.50;52.40;;;;;;5348121;26;20326;-50
2024/04/16 07:48:22;;;;;;;6.25;1.90;;;13.50;52.30;;;;;;5333415;26;20012;-49
2024/04/16 07:51:07;;;;;;;7.00;2.30;;;13.50;52.10;;;;;;5340927;26;20023;-51
2024/04/16 07:53:52;;;;;;;5.47;1.88;;;13.60;52.20;;;;;;5364730;26;20048;-54
2024/04/16 07:56:37;;;;;;;6.40;1.83;;;13.60;52.10;;;;;;5363110;26;20006;-56
2024/04/16 07:59:23;;;;;;;5.85;1.70;;;13.70;52.10;;;;;;5322208;26;20502;-53
2024/04/16 08:02:08;;;;;;;4.38;1.50;;;13.80;52.10;;;;;;5356795;26;20476;-52
2024/04/16 08:04:53;;;;;;;4.80;1.65;;;13.90;52.10;;;;;;5338472;26;20738;-51
2024/04/16 08:07:37;;;;;;;5.20;1.73;;;14.00;52.00;;;;;;5348204;26;20405;-51
2024/04/16 08:10:22;;;;;;;5.95;2.22;;;14.10;52.00;;;;;;5352470;26;20015;-49
2024/04/16 08:13:07;;;;;;;6.15;1.48;;;14.20;51.90;;;;;;5376676;26;20079;-54
2024/04/16 08:15:52;;;;;;;6.10;1.48;;;14.20;51.80;;;;;;5398887;26;20040;-52
2024/04/16 08:18:36;;;;;;;4.05;1.80;;;14.30;51.90;;;;;;5387986;26;20040;-55
2024/04/16 08:21:22;;;;;;;2.92;1.60;;;14.40;51.90;;;;;;5393188;26;20023;-53
2024/04/16 08:24:08;;;;;;;4.07;1.70;;;14.40;51.70;;;;;;5396429;26;20068;-53
2024/04/16 08:26:55;;;;;;;6.80;1.50;;;14.50;51.80;;;;;;5391702;26;20796;-52
2024/04/16 08:29:40;;;;;;;3.67;1.23;;;14.60;51.90;;;;;;5375287;26;20003;-54
2024/04/16 08:32:24;;;;;;;5.88;2.40;;;14.60;51.70;;;;;;5387531;26;20006;-51
2024/04/16 08:35:24;;;;;;;4.75;1.33;;;14.60;51.60;;;;;;5386091;26;20006;-51
2024/04/16 08:38:09;;;;;;;4.55;1.30;;;14.70;51.70;;;;;;5353642;26;20016;-48
2024/04/16 08:41:01;;;;;;;5.25;1.70;;;14.70;51.60;;;;;;5374352;26;20010;-52
2024/04/16 08:43:48;;;;;;;3.22;1.30;;;14.70;51.50;;;;;;5385330;26;20011;-55
2024/04/16 08:46:34;;;;;;;4.13;1.10;;;14.70;51.40;;;;;;5375716;26;20007;-54
2024/04/16 08:49:22;;;;;;;4.85;2.05;;;14.80;51.50;;;;;;5381587;26;20068;-52
2024/04/16 08:52:09;;;;;;;6.22;1.52;;;14.90;51.60;;;;;;5381029;26;20141;-53
2024/04/16 08:54:55;;;;;;;3.47;1.20;;;15.00;51.60;;;;;;5381535;26;20131;-48
2024/04/16 08:57:41;;;;;;;4.82;1.50;;;15.10;51.40;;;;;;5384353;26;20085;-52
2024/04/16 09:00:25;;;;;;;4.20;1.20;;;15.30;51.50;;;;;;5383127;26;20022;-53
2024/04/16 09:03:11;;;;;;;5.43;1.42;;;15.30;51.30;;;;;;5384337;26;20402;-51
2024/04/16 09:05:55;;;;;;;4.75;1.63;;;15.40;51.30;;;;;;5371891;26;20001;-53
2024/04/16 09:08:41;;;;;;;4.32;1.45;;;15.40;51.10;;;;;;5376215;26;20059;-53
2024/04/16 09:11:26;;;;;;;3.53;1.40;;;15.50;51.20;;;;;;5390418;26;20563;-50
2024/04/16 09:14:11;;;;;;;5.22;1.20;;;15.50;51.10;;;;;;5347929;26;20100;-51
2024/04/16 09:16:56;;;;;;;6.93;2.13;;;15.60;51.20;;;;;;5378374;26;20603;-51
2024/04/16 09:19:43;;;;;;;5.65;2.00;;;15.60;51.10;;;;;;5367909;26;20534;-49
2024/04/16 09:22:30;;;;;;;4.40;1.40;;;15.60;51.00;;;;;;5362654;26;20026;-50
2024/04/16 09:25:16;;;;;;;4.95;1.92;;;15.70;51.00;;;;;;5392719;26;20112;-52
2024/04/16 09:28:01;;;;;;;3.97;1.48;;;15.80;51.00;;;;;;5360871;26;20018;-52
2024/04/16 09:30:56;;;;;;;4.18;1.27;;;16.00;51.10;;;;;;5379733;26;20456;-53
2024/04/16 09:33:41;;;;;;;3.78;1.10;;;16.10;51.00;;;;;;5381085;26;20460;-52
2024/04/16 09:36:26;;;;;;;3.40;1.10;;;16.10;51.00;;;;;;5383224;26;20420;-50
2024/04/16 09:39:16;;;;;;;3.45;1.27;;;16.30;51.30;;;;;;5379934;26;20366;-52
2024/04/16 09:42:02;;;;;;;4.65;1.00;;;16.40;51.30;;;;;;5375285;26;20756;-50
2024/04/16 09:44:48;;;;;;;4.75;1.30;;;16.50;51.20;;;;;;5373928;26;20500;-51
2024/04/16 09:47:35;;;;;;;3.55;1.40;;;16.60;51.10;;;;;;5378368;26;20092;-50
2024/04/16 09:50:21;;;;;;;3.95;1.33;;;16.80;51.30;;;;;;5372824;26;20034;-52
2024/04/16 09:53:07;;;;;;;3.13;1.48;;;16.90;51.80;;;;;;5376026;26;20531;-55
2024/04/16 09:55:54;;;;;;;3.58;1.85;;;17.10;51.30;;;;;;5383319;26;20007;-51
2024/04/16 09:58:40;;;;;;;3.10;1.13;;;17.30;51.30;;;;;;5378833;26;20072;-52
2024/04/16 10:01:28;;;;;;;4.50;1.20;;;17.50;51.30;;;;;;5382340;26;20554;-49
2024/04/16 10:04:14;;;;;;;3.30;1.10;;;17.60;51.20;;;;;;5382635;26;20018;-54
2024/04/16 10:06:59;;;;;;;2.83;1.05;;;17.70;51.10;;;;;;5358526;26;20010;-50
2024/04/16 10:09:44;;;;;;;2.42;1.27;;;17.90;51.20;;;;;;5372766;26;20018;-51
2024/04/16 10:12:28;;;;;;;2.95;1.00;;;18.00;51.10;;;;;;5379526;26;20522;-53
2024/04/16 10:15:13;;;;;;;3.90;1.67;;;18.20;51.20;;;;;;5383674;26;20007;-54
2024/04/16 10:17:58;;;;;;;2.45;1.40;;;18.30;51.20;;;;;;5369261;26;20430;-51
2024/04/16 10:20:56;;;;;;;2.15;1.10;;;18.50;51.20;;;;;;5377109;26;20030;-52
2024/04/16 10:23:42;;;;;;;5.43;1.00;;;18.60;51.10;;;;;;5392712;26;20005;-51
2024/04/16 10:26:29;;;;;;;3.80;1.55;;;18.70;51.00;;;;;;5372376;26;20519;-54
2024/04/16 10:29:17;;;;;;;2.90;1.38;;;18.80;50.90;;;;;;5388912;26;20081;-51
2024/04/16 10:32:03;;;;;;;1.77;0.52;;;18.90;51.00;;;;;;5380636;26;20333;-50
2024/04/16 10:34:47;;;;;;;4.30;1.30;;;19.00;51.10;;;;;;5389489;26;20038;-49
2024/04/16 10:37:35;;;;;;;3.03;1.80;;;19.00;51.00;;;;;;5399743;26;20471;-51
2024/04/16 10:40:23;;;;;;;3.15;1.20;;;19.20;51.10;;;;;;5389826;26;20523;-52
2024/04/16 10:43:09;;;;;;;3.20;0.90;;;19.30;51.00;;;;;;5402782;26;20519;-54
2024/04/16 10:45:54;;;;;;;6.88;1.17;;;19.40;50.90;;;;;;5413236;26;21204;-54
2024/04/16 10:48:40;;;;;;;1.75;0.88;;;19.50;50.90;;;;;;5386628;26;20019;-52
2024/04/16 10:51:28;;;;;;;3.20;1.20;;;19.50;50.80;;;;;;5399671;26;20338;-51
2024/04/16 10:54:14;;;;;;;3.03;0.90;;;19.50;50.60;;;;;;5381955;26;20496;-51
2024/04/16 10:57:01;;;;;;;2.47;1.45;;;19.60;50.70;;;;;;5378817;26;20495;-53
2024/04/16 10:59:45;;;;;;;2.63;0.77;;;19.80;50.80;;;;;;5380119;26;20681;-53
2024/04/16 11:02:32;;;;;;;1.98;0.90;;;19.90;50.70;;;;;;5403173;26;20009;-52
2024/04/16 11:05:21;;;;;;;3.83;0.82;;;20.00;50.80;;;;;;5401709;26;20010;-52
2024/04/16 11:08:07;;;;;;;4.18;1.52;;;20.00;50.60;;;;;;5393844;26;20358;-53
2024/04/16 11:10:52;;;;;;;2.80;1.10;;;20.10;50.50;;;;;;5386321;26;20483;-56
2024/04/16 11:13:37;;;;;;;2.92;0.93;;;20.10;50.30;;;;;;5388252;26;20015;-56
2024/04/16 11:16:25;;;;;;;3.65;1.65;;;20.10;50.10;;;;;;5398159;26;20263;-49
2024/04/16 11:19:10;;;;;;;2.47;0.95;;;20.10;49.90;;;;;;5396785;26;20478;-51
2024/04/16 11:21:55;;;;;;;2.60;0.80;;;20.20;50.00;;;;;;5367883;26;20018;-54
2024/04/16 11:24:40;;;;;;;2.33;1.10;;;20.30;50.00;;;;;;5388181;26;20067;-51
2024/04/16 11:27:25;;;;;;;2.00;1.02;;;20.40;49.80;;;;;;5389246;26;20438;-52
2024/04/16 11:30:12;;;;;;;2.97;0.63;;;20.50;49.70;;;;;;5391321;26;20018;-59
2024/04/16 11:32:58;;;;;;;2.78;1.00;;;20.50;49.50;;;;;;5394226;26;20472;-53
2024/04/16 11:35:42;;;;;;;3.17;1.13;;;20.50;49.50;;;;;;5352809;26;20405;-53
2024/04/16 11:38:27;;;;;;;1.17;0.70;;;20.40;49.30;;;;;;5387796;26;20018;-50
2024/04/16 11:41:14;;;;;;;3.10;0.90;;;20.40;49.30;;;;;;5383990;26;20416;-53
2024/04/16 11:43:59;;;;;;;2.05;0.80;;;20.40;49.20;;;;;;5392651;26;20617;-49
2024/04/16 11:46:44;;;;;;;1.85;0.60;;;20.50;49.40;;;;;;5381855;26;20241;-50
2024/04/16 11:49:31;;;;;;;2.17;1.30;;;20.50;49.20;;;;;;5397779;26;20010;-53
2024/04/16 11:52:16;;;;;;;2.03;0.70;;;20.60;49.20;;;;;;5392434;26;20566;-53
2024/04/16 11:55:00;;;;;;;2.50;1.17;;;20.60;49.10;;;;;;5391854;26;20505;-52
2024/04/16 11:57:45;;;;;;;2.10;0.93;;;20.70;49.10;;;;;;5391210;26;20250;-50
2024/04/16 12:00:31;;;;;;;3.22;1.23;;;20.70;48.80;;;;;;5381232;26;20081;-52
2024/04/16 12:03:22;;;;;;;1.10;0.40;;;20.80;48.80;;;;;;5385678;26;20015;-51
2024/04/16 12:06:07;;;;;;;1.35;0.57;;;20.80;48.80;;;;;;5411698;26;20080;-52
2024/04/16 12:08:52;;;;;;;2.40;1.00;;;20.90;48.90;;;;;;5426434;26;20017;-49
2024/04/16 12:11:37;;;;;;;2.83;0.73;;;21.10;49.10;;;;;;5443482;26;20018;-52
2024/04/16 12:14:21;;;;;;;1.95;0.80;;;21.20;48.90;;;;;;5413188;26;20507;-50
2024/04/16 12:17:06;;;;;;;2.92;0.90;;;21.40;49.10;;;;;;5407189;26;20018;-53
2024/04/16 12:19:51;;;;;;;2.85;0.82;;;21.40;48.90;;;;;;5377514;26;20463;-52
2024/04/16 12:22:37;;;;;;;1.55;0.70;;;21.40;48.90;;;;;;5396428;26;20072;-53
2024/04/16 12:25:21;;;;;;;3.22;1.27;;;21.30;48.60;;;;;;5411772;26;20038;-49
2024/04/16 12:28:06;;;;;;;2.15;0.80;;;21.20;48.40;;;;;;5412756;26;20011;-50
2024/04/16 12:30:54;;;;;;;2.65;0.75;;;21.20;48.40;;;;;;5413087;26;20080;-52
2024/04/16 12:33:38;;;;;;;1.63;0.70;;;21.20;48.40;;;;;;5411899;26;20080;-49
2024/04/16 12:36:23;;;;;;;3.00;0.80;;;21.30;48.50;;;;;;5386323;26;20527;-50
2024/04/16 12:39:08;;;;;;;2.33;0.75;;;21.30;48.40;;;;;;5414089;26;20101;-51
2024/04/16 12:41:58;;;;;;;2.28;0.80;;;21.40;48.50;;;;;;5404272;26;20074;-52
2024/04/16 12:44:43;;;;;;;1.20;0.60;;;21.50;48.60;;;;;;5389737;26;20042;-53
2024/04/16 12:47:28;;;;;;;1.98;0.75;;;21.50;48.60;;;;;;5412279;26;20504;-48
2024/04/16 12:50:13;;;;;;;3.75;0.85;;;21.50;48.60;;;;;;5412410;26;20354;-51
2024/04/16 12:52:57;;;;;;;3.80;0.98;;;21.60;48.60;;;;;;5380644;26;20084;-51
2024/04/16 12:55:42;;;;;;;1.60;0.77;;;21.50;48.40;;;;;;5399481;26;20080;-52
2024/04/16 12:58:27;;;;;;;1.13;0.47;;;21.50;48.50;;;;;;5382129;26;20528;-54
2024/04/16 13:01:12;;;;;;;1.73;0.80;;;21.60;48.50;;;;;;5370540;26;20011;-50
2024/04/16 13:03:56;;;;;;;1.33;0.52;;;21.60;48.50;;;;;;5357936;26;20076;-51
2024/04/16 13:06:41;;;;;;;0.95;0.70;;;21.50;48.30;;;;;;5347369;26;20019;-49
2024/04/16 13:09:26;;;;;;;2.00;0.95;;;21.50;48.40;;;;;;5347800;26;20115;-52
2024/04/16 13:12:10;;;;;;;2.50;0.63;;;21.50;48.50;;;;;;5347091;26;20431;-51
2024/04/16 13:14:55;;;;;;;1.88;0.47;;;21.50;48.50;;;;;;5374813;26;20018;-57
2024/04/16 13:17:40;;;;;;;1.38;0.50;;;21.60;48.60;;;;;;5383211;26;20077;-59
2024/04/16 13:20:25;;;;;;;1.65;0.50;;;21.50;48.40;;;;;;5385185;26;20035;-50
2024/04/16 13:23:09;;;;;;;2.80;0.40;;;21.50;48.40;;;;;;5383283;26;20137;-47
2024/04/16 13:25:55;;;;;;;1.77;0.70;;;21.50;48.40;;;;;;5381298;26;20007;-51
2024/04/16 13:28:39;;;;;;;1.52;0.65;;;21.50;48.40;;;;;;5349297;26;20534;-53
2024/04/16 13:31:24;;;;;;;0.82;0.43;;;21.40;48.10;;;;;;5387396;26;20084;-55
2024/04/16 13:34:08;;;;;;;1.95;0.63;;;21.50;48.40;;;;;;5384728;26;20125;-54
2024/04/16 13:36:53;;;;;;;1.23;0.68;;;21.60;48.20;;;;;;5378203;26;20494;-52
2024/04/16 13:39:38;;;;;;;2.17;0.85;;;21.70;48.20;;;;;;5376707;26;20013;-52
2024/04/16 13:42:23;;;;;;;0.75;0.52;;;21.80;48.30;;;;;;5383266;26;20006;-50
2024/04/16 13:45:08;;;;;;;0.40;0.30;;;21.90;48.40;;;;;;5392172;26;20554;-52
2024/04/16 13:47:53;;;;;;;1.08;0.50;;;21.90;48.30;;;;;;5374576;26;20018;-53
2024/04/16 13:50:42;;;;;;;1.45;0.75;;;21.90;48.30;;;;;;5400760;26;20466;-51
2024/04/16 13:53:27;;;;;;;1.70;0.32;;;22.00;48.40;;;;;;5383509;26;20018;-54
2024/04/16 13:56:11;;;;;;;1.10;0.45;;;22.10;48.40;;;;;;5385904;26;20010;-49
2024/04/16 13:58:58;;;;;;;2.05;0.40;;;22.20;48.40;;;;;;5383666;26;20022;-50
2024/04/16 14:01:42;;;;;;;1.48;0.40;;;22.40;48.50;;;;;;5389388;26;20014;-53
2024/04/16 14:04:27;;;;;;;2.92;1.13;;;22.50;48.40;;;;;;5381065;26;20022;-53
2024/04/16 14:07:12;;;;;;;2.08;0.68;;;22.70;48.50;;;;;;5386239;26;20003;-51
2024/04/16 14:09:57;;;;;;;1.85;0.77;;;22.90;48.60;;;;;;5374701;26;20010;-53
2024/04/16 14:12:42;;;;;;;2.55;0.60;;;23.10;48.80;;;;;;5379253;26;20446;-53
2024/04/16 14:15:27;;;;;;;2.85;0.50;;;23.20;48.70;;;;;;5349969;26;20143;-50
2024/04/16 14:18:12;;;;;;;3.83;0.65;;;23.30;48.80;;;;;;5326541;26;20080;-52
2024/04/16 14:20:57;;;;;;;2.40;0.57;;;23.40;48.90;;;;;;5347685;26;20202;-49
2024/04/16 14:23:43;;;;;;;0.52;0.32;;;23.50;48.90;;;;;;5352767;26;20007;-55
2024/04/16 14:26:28;;;;;;;0.95;0.47;;;23.60;48.80;;;;;;5364470;26;20244;-53